createdAt,value
2018-12-26T00:01:09.412Z,12.07
2018-12-26T00:03:38.650Z,11.70
2018-12-26T00:06:07.582Z,11.67
2018-12-26T00:08:37.303Z,11.50
2018-12-26T00:11:06.442Z,11.97
2018-12-26T00:13:35.830Z,11.43
2018-12-26T00:16:05.119Z,11.23
2018-12-26T00:18:34.045Z,10.90
2018-12-26T00:21:03.043Z,11.63
2018-12-26T00:23:32.696Z,11.47
2018-12-26T00:26:02.103Z,11.07
2018-12-26T00:28:31.632Z,11.37
2018-12-26T00:31:00.496Z,10.60
2018-12-26T00:33:29.728Z,11.00
2018-12-26T00:35:58.879Z,12.33
2018-12-26T00:38:27.710Z,10.87
2018-12-26T00:40:56.875Z,11.33
2018-12-26T00:43:25.714Z,10.77
2018-12-26T00:45:55.248Z,10.97
2018-12-26T00:48:24.651Z,12.13
2018-12-26T00:50:53.947Z,11.50
2018-12-26T00:53:23.051Z,10.87
2018-12-26T00:55:52.544Z,11.07
2018-12-26T00:58:21.744Z,10.37
2018-12-26T01:00:50.869Z,10.63
2018-12-26T01:03:19.969Z,10.40
2018-12-26T01:05:48.805Z,10.80
2018-12-26T01:08:18.215Z,11.87
2018-12-26T01:10:47.339Z,11.47
2018-12-26T01:13:16.725Z,11.67
2018-12-26T01:15:45.997Z,10.77
2018-12-26T01:18:15.161Z,12.73
2018-12-26T01:20:44.371Z,13.13
2018-12-26T01:23:13.843Z,13.13
2018-12-26T01:25:43.227Z,13.33
2018-12-26T01:28:12.858Z,13.87
2018-12-26T01:30:41.779Z,12.53
2018-12-26T01:33:10.714Z,11.83
2018-12-26T01:35:40.067Z,12.27
2018-12-26T01:38:09.258Z,12.63
2018-12-26T01:40:38.417Z,12.10
2018-12-26T01:43:07.643Z,13.13
2018-12-26T01:45:37.351Z,12.07
2018-12-26T01:48:06.840Z,11.40
2018-12-26T01:50:36.286Z,11.83
2018-12-26T01:53:06.115Z,12.03
2018-12-26T01:55:35.523Z,11.23
2018-12-26T01:58:04.904Z,11.97
2018-12-26T02:00:34.444Z,12.30
2018-12-26T02:03:03.647Z,12.33
2018-12-26T02:05:32.960Z,11.93
2018-12-26T02:08:02.667Z,12.10
2018-12-26T02:10:31.590Z,10.80
2018-12-26T02:13:00.764Z,12.57
2018-12-26T02:15:30.272Z,10.87
2018-12-26T02:17:59.684Z,11.47
2018-12-26T02:20:29.159Z,11.53
2018-12-26T02:22:58.704Z,11.73
2018-12-26T02:25:28.152Z,11.40
2018-12-26T02:27:57.551Z,12.33
2018-12-26T02:30:26.952Z,11.47
2018-12-26T02:32:56.669Z,11.60
2018-12-26T02:35:25.852Z,11.63
2018-12-26T02:37:55.043Z,12.17
2018-12-26T02:40:24.424Z,11.40
2018-12-26T02:42:54.324Z,11.77
2018-12-26T02:45:24.002Z,12.13
2018-12-26T02:47:53.424Z,11.97
2018-12-26T02:50:23.135Z,11.50
2018-12-26T02:52:53.061Z,12.40
2018-12-26T02:55:22.318Z,11.30
2018-12-26T02:57:52.141Z,11.23
2018-12-26T03:00:21.042Z,11.87
2018-12-26T03:02:50.537Z,12.23
2018-12-26T03:05:20.131Z,11.93
2018-12-26T03:07:49.319Z,12.07
2018-12-26T03:10:18.544Z,11.57
2018-12-26T03:12:48.409Z,10.53
2018-12-26T03:15:17.486Z,11.30
2018-12-26T03:17:46.496Z,11.07
2018-12-26T03:20:15.689Z,11.37
2018-12-26T03:22:45.355Z,11.97
2018-12-26T03:25:14.920Z,11.40
2018-12-26T03:27:45.026Z,11.37
2018-12-26T03:30:14.388Z,11.63
2018-12-26T03:32:44.241Z,11.23
2018-12-26T03:35:13.435Z,12.43
2018-12-26T03:37:42.652Z,11.00
2018-12-26T03:40:11.947Z,11.80
2018-12-26T03:42:41.723Z,11.17
2018-12-26T03:45:11.003Z,11.30
2018-12-26T03:47:40.976Z,11.67
2018-12-26T03:50:10.231Z,11.27
2018-12-26T03:52:40.266Z,11.77
2018-12-26T03:55:09.819Z,11.40
2018-12-26T03:57:39.321Z,11.43
2018-12-26T04:00:09.039Z,12.20
2018-12-26T04:02:38.715Z,11.60
2018-12-26T04:05:07.989Z,11.80
2018-12-26T04:07:38.059Z,11.43
2018-12-26T04:10:07.319Z,12.37
2018-12-26T04:12:36.455Z,12.13
2018-12-26T04:15:05.644Z,11.80
2018-12-26T04:17:34.870Z,13.20
2018-12-26T04:20:04.508Z,13.10
2018-12-26T04:22:33.560Z,14.77
2018-12-26T04:25:03.255Z,14.40
2018-12-26T04:27:32.593Z,14.47
2018-12-26T04:30:01.957Z,15.33
2018-12-26T04:32:31.135Z,13.63
2018-12-26T04:35:00.359Z,14.47
2018-12-26T04:37:29.650Z,13.93
2018-12-26T04:39:59.028Z,13.30
2018-12-26T04:42:28.494Z,13.00
2018-12-26T04:44:57.419Z,14.23
2018-12-26T04:47:26.458Z,14.27
2018-12-26T04:49:55.631Z,13.93
2018-12-26T04:52:24.889Z,12.77
2018-12-26T04:54:53.771Z,13.33
2018-12-26T04:57:24.820Z,13.20
2018-12-26T04:59:54.100Z,13.27
2018-12-26T05:02:23.910Z,12.80
2018-12-26T05:04:53.580Z,12.97
2018-12-26T05:07:22.467Z,14.07
2018-12-26T05:09:51.342Z,13.80
2018-12-26T05:12:20.468Z,12.97
2018-12-26T05:14:50.005Z,12.90
2018-12-26T05:17:19.367Z,13.47
2018-12-26T05:19:48.839Z,13.90
2018-12-26T05:22:18.308Z,13.80
2018-12-26T05:24:47.744Z,13.80
2018-12-26T05:27:17.042Z,13.60
2018-12-26T05:29:46.283Z,13.20
2018-12-26T05:32:15.579Z,13.47
2018-12-26T05:34:44.494Z,12.83
2018-12-26T05:37:14.108Z,12.80
2018-12-26T05:39:43.350Z,13.13
2018-12-26T05:42:12.627Z,13.97
2018-12-26T05:44:41.808Z,12.20
2018-12-26T05:47:11.255Z,11.33
2018-12-26T05:49:40.602Z,12.47
2018-12-26T05:52:10.294Z,11.87
2018-12-26T05:54:39.237Z,11.20
2018-12-26T05:57:08.482Z,10.03
2018-12-26T05:59:38.059Z,11.30
2018-12-26T06:02:07.254Z,11.33
2018-12-26T06:04:36.615Z,12.70
2018-12-26T06:07:06.115Z,11.77
2018-12-26T06:09:35.859Z,11.57
2018-12-26T06:12:05.799Z,12.30
2018-12-26T06:14:34.756Z,12.30
2018-12-26T06:17:03.997Z,12.67
2018-12-26T06:19:33.027Z,12.00
2018-12-26T06:22:02.478Z,11.63
2018-12-26T06:24:32.052Z,11.73
2018-12-26T06:27:00.891Z,11.93
2018-12-26T06:29:30.351Z,11.97
2018-12-26T06:32:00.067Z,10.73
2018-12-26T06:34:28.923Z,11.33
2018-12-26T06:36:58.070Z,12.17
2018-12-26T06:39:27.232Z,12.23
2018-12-26T06:41:56.852Z,13.97
2018-12-26T06:44:26.059Z,11.20
2018-12-26T06:46:55.687Z,11.53
2018-12-26T06:49:25.433Z,11.97
2018-12-26T06:51:54.633Z,12.10
2018-12-26T06:54:24.551Z,12.33
2018-12-26T06:56:54.519Z,12.37
2018-12-26T06:59:23.822Z,12.80
2018-12-26T07:01:57.008Z,13.47
2018-12-26T07:04:27.099Z,13.43
2018-12-26T07:06:56.788Z,12.80
2018-12-26T07:09:25.995Z,13.20
2018-12-26T07:11:55.374Z,13.90
2018-12-26T07:14:25.106Z,13.30
2018-12-26T07:16:54.556Z,14.20
2018-12-26T07:19:23.779Z,14.77
2018-12-26T07:21:53.415Z,14.10
2018-12-26T07:24:22.987Z,13.53
2018-12-26T07:26:52.752Z,14.00
2018-12-26T07:29:22.320Z,14.10
2018-12-26T07:31:51.718Z,13.80
2018-12-26T07:34:20.615Z,13.80
2018-12-26T07:36:49.843Z,15.87
2018-12-26T07:39:19.003Z,14.00
2018-12-26T07:41:48.491Z,15.03
2018-12-26T07:44:17.667Z,15.23
2018-12-26T07:46:47.074Z,13.83
2018-12-26T07:49:16.232Z,15.70
2018-12-26T07:51:46.055Z,13.00
2018-12-26T07:54:15.195Z,13.63
2018-12-26T07:56:44.553Z,14.00
2018-12-26T07:59:13.398Z,14.20
2018-12-26T08:01:42.884Z,14.97
2018-12-26T08:04:12.318Z,15.33
2018-12-26T08:06:41.519Z,15.50
2018-12-26T08:09:11.183Z,14.37
2018-12-26T08:11:40.638Z,14.50
2018-12-26T08:14:09.908Z,15.37
2018-12-26T08:16:39.083Z,17.50
2018-12-26T08:19:08.712Z,19.37
2018-12-26T08:21:38.628Z,19.10
2018-12-26T08:24:07.889Z,22.97
2018-12-26T08:26:37.296Z,27.07
2018-12-26T08:29:06.651Z,22.60
2018-12-26T08:31:36.088Z,20.90
2018-12-26T08:34:05.491Z,19.77
2018-12-26T08:36:34.910Z,19.93
2018-12-26T08:39:05.366Z,21.80
2018-12-26T08:41:34.875Z,19.90
2018-12-26T08:44:03.766Z,18.77
2018-12-26T08:46:33.563Z,19.40
2018-12-26T08:49:03.024Z,20.30
2018-12-26T08:51:32.933Z,22.67
2018-12-26T08:54:02.460Z,20.57
2018-12-26T08:56:31.754Z,22.00
2018-12-26T08:59:01.121Z,21.37
2018-12-26T09:01:30.644Z,20.53
2018-12-26T09:04:00.338Z,18.23
2018-12-26T09:06:29.731Z,21.30
2018-12-26T09:08:59.091Z,18.50
2018-12-26T09:11:28.366Z,17.83
2018-12-26T09:13:57.970Z,17.90
2018-12-26T09:16:27.186Z,18.07
2018-12-26T09:18:56.379Z,18.90
2018-12-26T09:21:26.161Z,18.50
2018-12-26T09:23:55.364Z,19.47
2018-12-26T09:26:24.574Z,19.17
2018-12-26T09:28:53.682Z,18.10
2018-12-26T09:31:23.061Z,18.20
2018-12-26T09:33:52.419Z,17.90
2018-12-26T09:36:21.248Z,16.87
2018-12-26T09:38:50.710Z,17.73
2018-12-26T09:41:20.339Z,18.17
2018-12-26T09:43:49.882Z,17.90
2018-12-26T09:46:19.261Z,17.03
2018-12-26T09:48:48.359Z,15.03
2018-12-26T09:51:18.099Z,16.70
2018-12-26T09:53:47.211Z,15.57
2018-12-26T09:56:16.434Z,15.80
2018-12-26T09:58:52.411Z,15.13
2018-12-26T10:01:17.151Z,14.73
2018-12-26T10:03:46.570Z,16.17
2018-12-26T10:06:16.358Z,14.17
2018-12-26T10:08:45.156Z,13.33
2018-12-26T10:11:14.818Z,14.40
2018-12-26T10:13:44.743Z,15.20
2018-12-26T10:16:14.119Z,13.17
2018-12-26T10:18:42.920Z,14.07
2018-12-26T10:21:12.323Z,14.17
2018-12-26T10:23:42.341Z,14.13
2018-12-26T10:26:11.232Z,14.27
2018-12-26T10:28:40.423Z,13.57
2018-12-26T10:31:09.987Z,13.67
2018-12-26T10:33:39.815Z,13.77
2018-12-26T10:36:08.951Z,16.37
2018-12-26T10:38:38.803Z,12.77
2018-12-26T10:41:08.752Z,12.53
2018-12-26T10:43:37.861Z,13.10
2018-12-26T10:46:07.611Z,11.00
2018-12-26T10:48:36.967Z,11.43
2018-12-26T10:51:06.090Z,10.03
2018-12-26T10:53:35.187Z,10.93
2018-12-26T10:56:04.089Z,12.03
2018-12-26T10:58:33.636Z,10.17
2018-12-26T11:01:02.871Z,11.70
2018-12-26T11:03:31.967Z,10.80
2018-12-26T11:06:01.098Z,11.20
2018-12-26T11:08:30.438Z,9.70
2018-12-26T11:11:00.067Z,10.03
2018-12-26T11:13:29.759Z,10.77
2018-12-26T11:15:59.244Z,9.97
2018-12-26T11:18:29.493Z,10.17
2018-12-26T11:20:58.946Z,9.93
2018-12-26T11:23:28.035Z,9.83
2018-12-26T11:25:57.338Z,8.60
2018-12-26T11:28:26.705Z,8.63
2018-12-26T11:30:55.603Z,9.97
2018-12-26T11:33:25.146Z,8.87
2018-12-26T11:35:54.358Z,8.00
2018-12-26T11:38:23.439Z,7.90
2018-12-26T11:40:53.131Z,8.33
2018-12-26T11:43:22.591Z,8.20
2018-12-26T11:45:51.802Z,8.53
2018-12-26T11:48:20.992Z,6.70
2018-12-26T11:50:50.639Z,7.43
2018-12-26T11:53:19.999Z,7.40
2018-12-26T11:55:49.206Z,6.80
2018-12-26T11:58:18.574Z,8.37
2018-12-26T12:00:47.400Z,8.03
2018-12-26T12:03:16.936Z,8.87
2018-12-26T12:05:46.135Z,7.33
2018-12-26T12:08:15.638Z,7.33
2018-12-26T12:10:44.808Z,7.30
2018-12-26T12:13:14.107Z,7.50
2018-12-26T12:15:43.627Z,8.33
2018-12-26T12:18:13.052Z,8.50
2018-12-26T12:20:42.678Z,8.73
2018-12-26T12:23:11.626Z,8.77
2018-12-26T12:25:40.797Z,13.90
2018-12-26T12:28:10.152Z,9.80
2018-12-26T12:30:39.174Z,10.13
2018-12-26T12:33:08.083Z,9.00
2018-12-26T12:35:37.543Z,10.47
2018-12-26T12:38:06.792Z,10.23
2018-12-26T12:40:36.219Z,11.03
2018-12-26T12:43:05.780Z,14.07
2018-12-26T12:45:34.986Z,9.07
2018-12-26T12:48:04.205Z,8.00
2018-12-26T12:50:33.239Z,7.03
2018-12-26T12:53:02.403Z,6.50
2018-12-26T12:55:31.569Z,5.40
2018-12-26T12:58:00.761Z,6.23
2018-12-26T13:00:29.759Z,6.93
2018-12-26T13:03:00.521Z,6.97
2018-12-26T13:05:30.026Z,6.87
2018-12-26T13:07:59.122Z,6.63
2018-12-26T13:10:28.490Z,6.30
2018-12-26T13:12:57.809Z,6.20
2018-12-26T13:15:26.935Z,10.27
2018-12-26T13:17:55.740Z,7.93
2018-12-26T13:20:24.603Z,31.57
2018-12-26T13:22:53.514Z,59.13
2018-12-26T13:25:23.088Z,13.00
2018-12-26T13:27:52.685Z,7.07
2018-12-26T13:30:21.956Z,6.43
2018-12-26T13:32:51.084Z,5.50
2018-12-26T13:35:20.068Z,6.40
2018-12-26T13:37:49.658Z,6.10
2018-12-26T13:40:21.062Z,8.40
2018-12-26T13:42:49.690Z,11.20
2018-12-26T13:45:18.816Z,5.53
2018-12-26T13:47:48.368Z,5.43
2018-12-26T13:50:17.954Z,14.20
2018-12-26T13:52:47.261Z,5.00
2018-12-26T13:55:16.832Z,6.37
2018-12-26T13:57:46.406Z,5.47
2018-12-26T14:00:15.533Z,5.73
2018-12-26T14:02:44.845Z,4.60
2018-12-26T14:05:13.602Z,5.17
2018-12-26T14:07:42.716Z,5.20
2018-12-26T14:10:11.852Z,5.50
2018-12-26T14:12:40.912Z,5.57
2018-12-26T14:15:10.819Z,5.23
2018-12-26T14:17:40.771Z,5.97
2018-12-26T14:20:10.263Z,6.20
2018-12-26T14:22:39.903Z,6.17
2018-12-26T14:25:09.445Z,6.00
2018-12-26T14:27:38.906Z,6.37
2018-12-26T14:30:11.260Z,5.77
2018-12-26T14:32:40.131Z,5.80
2018-12-26T14:35:09.551Z,5.43
2018-12-26T14:37:38.932Z,6.37
2018-12-26T14:40:07.867Z,6.00
2018-12-26T14:42:37.282Z,4.97
2018-12-26T14:45:06.339Z,5.33
2018-12-26T14:47:35.979Z,5.40
2018-12-26T14:50:06.300Z,5.50
2018-12-26T14:52:35.714Z,5.30
2018-12-26T14:55:04.747Z,5.23
2018-12-26T14:57:34.128Z,5.00
2018-12-26T15:00:02.928Z,5.30
2018-12-26T15:02:32.395Z,5.20
2018-12-26T15:05:02.101Z,5.23
2018-12-26T15:07:32.312Z,5.77
2018-12-26T15:10:01.474Z,5.53
2018-12-26T15:12:30.947Z,4.90
2018-12-26T15:15:00.351Z,5.63
2018-12-26T15:17:30.020Z,5.87
2018-12-26T15:19:59.176Z,4.83
2018-12-26T15:22:28.350Z,5.80
2018-12-26T15:24:57.711Z,5.47
2018-12-26T15:27:26.831Z,6.20
2018-12-26T15:29:55.723Z,6.70
2018-12-26T15:32:25.375Z,6.33
2018-12-26T15:34:55.003Z,6.43
2018-12-26T15:37:23.810Z,6.20
2018-12-26T15:39:53.471Z,6.60
2018-12-26T15:42:22.912Z,6.90
2018-12-26T15:44:51.711Z,6.83
2018-12-26T15:47:20.991Z,7.60
2018-12-26T15:49:50.111Z,7.37
2018-12-26T15:52:19.208Z,7.27
2018-12-26T15:54:50.036Z,9.53
2018-12-26T15:57:19.692Z,6.87
2018-12-26T15:59:48.954Z,7.30
2018-12-26T16:02:18.039Z,6.77
2018-12-26T16:04:47.526Z,6.77
2018-12-26T16:07:16.710Z,7.00
2018-12-26T16:09:46.156Z,7.40
2018-12-26T16:12:15.815Z,7.33
2018-12-26T16:14:45.270Z,7.57
2018-12-26T16:17:14.884Z,7.07
2018-12-26T16:19:44.082Z,7.50
2018-12-26T16:22:13.715Z,7.80
2018-12-26T16:24:42.507Z,7.30
2018-12-26T16:27:11.760Z,8.00
2018-12-26T16:29:40.745Z,8.77
2018-12-26T16:32:10.185Z,9.17
2018-12-26T16:34:39.705Z,9.37
2018-12-26T16:37:09.362Z,9.40
2018-12-26T16:39:38.624Z,9.10
2018-12-26T16:42:07.672Z,9.67
2018-12-26T16:44:37.200Z,9.20
2018-12-26T16:47:06.041Z,9.00
2018-12-26T16:49:35.104Z,8.53
2018-12-26T16:52:04.288Z,10.03
2018-12-26T16:54:33.573Z,10.13
2018-12-26T16:57:02.947Z,9.47
2018-12-26T16:59:32.136Z,9.90
2018-12-26T17:02:01.707Z,10.17
2018-12-26T17:04:30.783Z,10.00
2018-12-26T17:06:59.931Z,10.40
2018-12-26T17:09:29.217Z,10.67
2018-12-26T17:11:58.766Z,10.87
2018-12-26T17:14:28.532Z,11.73
2018-12-26T17:16:58.248Z,11.63
2018-12-26T17:19:27.519Z,11.87
2018-12-26T17:21:56.887Z,12.60
2018-12-26T17:24:26.146Z,12.23
2018-12-26T17:26:56.111Z,11.50
2018-12-26T17:29:25.384Z,11.97
2018-12-26T17:31:54.648Z,12.23
2018-12-26T17:34:23.940Z,11.60
2018-12-26T17:36:53.223Z,13.00
2018-12-26T17:39:22.768Z,12.37
2018-12-26T17:41:52.064Z,12.17
2018-12-26T17:44:20.859Z,12.73
2018-12-26T17:46:49.922Z,12.03
2018-12-26T17:49:18.989Z,12.97
2018-12-26T17:51:47.710Z,12.63
2018-12-26T17:54:53.537Z,13.03
2018-12-26T17:57:27.483Z,12.30
2018-12-26T18:00:30.485Z,12.67
2018-12-26T18:02:59.776Z,12.57
2018-12-26T18:05:28.583Z,13.07
2018-12-26T18:07:57.607Z,12.17
2018-12-26T18:10:26.375Z,12.73
2018-12-26T18:12:55.716Z,12.53
2018-12-26T18:15:25.092Z,13.43
2018-12-26T18:17:54.383Z,14.43
2018-12-26T18:20:23.688Z,14.40
2018-12-26T18:22:53.025Z,14.47
2018-12-26T18:25:22.095Z,14.13
2018-12-26T18:27:51.739Z,14.77
2018-12-26T18:30:21.266Z,15.80
2018-12-26T18:32:50.510Z,15.00
2018-12-26T18:35:19.812Z,16.30
2018-12-26T18:37:49.404Z,15.50
2018-12-26T18:40:18.363Z,16.47
2018-12-26T18:42:49.285Z,16.60
2018-12-26T18:45:18.072Z,15.50
2018-12-26T18:47:47.247Z,15.53
2018-12-26T18:50:16.392Z,17.60
2018-12-26T18:52:45.426Z,15.23
2018-12-26T18:55:15.709Z,15.73
2018-12-26T18:57:44.913Z,14.40
2018-12-26T19:00:14.244Z,16.53
2018-12-26T19:02:43.884Z,17.20
2018-12-26T19:05:13.332Z,16.20
2018-12-26T19:07:42.591Z,16.97
2018-12-26T19:10:11.770Z,17.97
2018-12-26T19:12:41.294Z,17.27
2018-12-26T19:15:11.260Z,18.30
2018-12-26T19:17:40.587Z,17.63
2018-12-26T19:20:11.129Z,18.83
2018-12-26T19:22:40.635Z,18.80
2018-12-26T19:25:10.739Z,19.00
2018-12-26T19:27:39.832Z,19.87
2018-12-26T19:30:11.668Z,19.97
2018-12-26T19:32:40.805Z,18.37
2018-12-26T19:35:15.813Z,19.07
2018-12-26T19:37:44.918Z,18.47
2018-12-26T19:40:14.150Z,18.53
2018-12-26T19:42:43.188Z,18.30
2018-12-26T19:45:12.516Z,18.90
2018-12-26T19:47:41.796Z,18.97
2018-12-26T19:50:10.828Z,19.30
2018-12-26T19:52:40.335Z,20.10
2018-12-26T19:55:09.963Z,22.00
2018-12-26T19:57:39.299Z,19.50
2018-12-26T20:00:09.592Z,20.53
2018-12-26T20:02:38.378Z,17.63
2018-12-26T20:05:07.455Z,18.70
2018-12-26T20:07:36.607Z,18.20
2018-12-26T20:10:06.741Z,18.77
2018-12-26T20:12:35.867Z,17.23
2018-12-26T20:15:05.775Z,20.50
2018-12-26T20:17:35.207Z,19.80
2018-12-26T20:20:04.743Z,19.10
2018-12-26T20:22:34.930Z,20.70
2018-12-26T20:25:04.274Z,17.50
2018-12-26T20:27:33.111Z,18.60
2018-12-26T20:30:02.311Z,19.30
2018-12-26T20:32:31.459Z,20.77
2018-12-26T20:35:00.907Z,20.67
2018-12-26T20:37:29.999Z,19.80
2018-12-26T20:39:59.267Z,21.43
2018-12-26T20:42:28.916Z,21.37
2018-12-26T20:44:57.894Z,19.77
2018-12-26T20:47:27.275Z,20.10
2018-12-26T20:49:56.234Z,21.23
2018-12-26T20:52:25.530Z,21.97
2018-12-26T20:54:54.748Z,24.10
2018-12-26T20:57:23.565Z,21.97
2018-12-26T20:59:53.207Z,23.87
2018-12-26T21:02:22.755Z,21.90
2018-12-26T21:04:51.645Z,22.60
2018-12-26T21:07:20.789Z,24.17
2018-12-26T21:09:49.959Z,21.43
2018-12-26T21:12:18.802Z,23.27
2018-12-26T21:14:48.155Z,22.93
2018-12-26T21:17:17.450Z,22.27
2018-12-26T21:19:47.762Z,29.70
2018-12-26T21:22:16.984Z,27.83
2018-12-26T21:24:47.137Z,26.70
2018-12-26T21:27:16.275Z,25.77
2018-12-26T21:29:45.608Z,29.07
2018-12-26T21:32:14.938Z,25.10
2018-12-26T21:34:44.831Z,23.27
2018-12-26T21:37:13.793Z,31.67
2018-12-26T21:39:43.170Z,27.00
2018-12-26T21:42:11.988Z,26.30
2018-12-26T21:44:41.182Z,26.03
2018-12-26T21:47:10.731Z,23.17
2018-12-26T21:49:40.300Z,24.37
2018-12-26T21:52:10.388Z,20.50
2018-12-26T21:54:39.318Z,20.40
2018-12-26T21:57:09.151Z,21.07
2018-12-26T21:59:38.562Z,21.07
2018-12-26T22:02:08.090Z,21.10
2018-12-26T22:04:37.016Z,20.33
2018-12-26T22:07:06.274Z,20.40
2018-12-26T22:09:35.362Z,20.77
2018-12-26T22:12:04.361Z,21.20
2018-12-26T22:14:33.945Z,19.63
2018-12-26T22:17:02.896Z,19.87
2018-12-26T22:19:32.290Z,18.17
2018-12-26T22:22:01.375Z,19.03
2018-12-26T22:24:30.703Z,19.33
2018-12-26T22:26:59.826Z,19.13
2018-12-26T22:29:28.931Z,19.03
2018-12-26T22:31:58.413Z,19.90
2018-12-26T22:34:27.498Z,19.17
2018-12-26T22:36:56.674Z,18.50
2018-12-26T22:39:25.747Z,19.13
2018-12-26T22:41:55.126Z,18.87
2018-12-26T22:44:27.805Z,18.10
2018-12-26T22:46:55.326Z,18.87
2018-12-26T22:49:24.416Z,18.17
2018-12-26T22:51:53.537Z,18.10
2018-12-26T22:54:23.129Z,18.83
2018-12-26T22:56:53.388Z,17.70
2018-12-26T22:59:23.691Z,17.60
2018-12-26T23:01:52.886Z,18.97
2018-12-26T23:04:22.043Z,17.73
2018-12-26T23:06:51.615Z,18.27
2018-12-26T23:09:20.512Z,17.50
2018-12-26T23:11:49.406Z,18.27
2018-12-26T23:14:18.333Z,17.67
2018-12-26T23:16:47.555Z,17.53
2018-12-26T23:19:16.403Z,17.90
2018-12-26T23:21:45.707Z,17.17
2018-12-26T23:24:15.075Z,18.77
2018-12-26T23:26:44.278Z,19.03
2018-12-26T23:29:13.458Z,17.13
2018-12-26T23:31:42.575Z,16.47
2018-12-26T23:34:11.704Z,16.90
2018-12-26T23:36:41.502Z,17.00
2018-12-26T23:39:10.464Z,17.53
2018-12-26T23:41:39.871Z,16.93
2018-12-26T23:44:08.666Z,17.30
2018-12-26T23:46:37.509Z,17.23
2018-12-26T23:49:06.999Z,16.90
2018-12-26T23:51:36.429Z,17.67
2018-12-26T23:54:05.879Z,18.00
2018-12-26T23:56:35.242Z,18.63
2018-12-26T23:59:04.370Z,18.37
